createdAt,value
2022-12-31T00:01:49.840Z,100.00
2022-12-31T00:04:17.732Z,100.00
2022-12-31T00:06:48.201Z,100.00
2022-12-31T00:09:16.024Z,100.00
2022-12-31T00:11:43.985Z,100.00
2022-12-31T00:14:13.324Z,100.00
2022-12-31T00:16:42.933Z,100.00
2022-12-31T00:19:12.629Z,100.00
2022-12-31T00:21:41.326Z,100.00
2022-12-31T00:24:12.512Z,100.00
2022-12-31T00:26:40.481Z,100.00
2022-12-31T00:29:08.378Z,100.00
2022-12-31T00:31:38.963Z,100.00
2022-12-31T00:34:07.859Z,100.00
2022-12-31T00:36:37.625Z,100.00
2022-12-31T00:39:09.145Z,100.00
2022-12-31T00:41:38.442Z,100.00
2022-12-31T00:44:06.807Z,100.00
2022-12-31T00:49:02.285Z,100.00
2022-12-31T00:51:31.197Z,100.00
2022-12-31T00:53:59.471Z,100.00
2022-12-31T00:56:29.489Z,100.00
2022-12-31T00:59:00.886Z,100.00
2022-12-31T01:01:30.895Z,100.00
2022-12-31T01:04:01.375Z,100.00
2022-12-31T01:06:29.267Z,100.00
2022-12-31T01:08:57.383Z,100.00
2022-12-31T01:11:29.442Z,100.00
2022-12-31T01:14:00.764Z,100.00
2022-12-31T01:16:32.172Z,100.00
2022-12-31T01:19:01.637Z,100.00
2022-12-31T01:21:30.102Z,100.00
2022-12-31T01:23:59.368Z,100.00
2022-12-31T01:26:28.238Z,100.00
2022-12-31T01:28:56.041Z,100.00
2022-12-31T01:31:26.278Z,100.00
2022-12-31T01:33:57.879Z,100.00
2022-12-31T01:36:27.807Z,100.00
2022-12-31T01:38:57.348Z,100.00
2022-12-31T01:41:27.671Z,100.00
2022-12-31T01:43:58.749Z,100.00
2022-12-31T01:46:40.333Z,100.00
2022-12-31T01:49:13.834Z,100.00
2022-12-31T01:51:44.554Z,100.00
2022-12-31T01:54:15.148Z,100.00
2022-12-31T01:56:44.199Z,100.00
2022-12-31T01:59:15.339Z,100.00
2022-12-31T02:01:46.763Z,100.00
2022-12-31T02:04:16.659Z,100.00
2022-12-31T02:06:49.080Z,100.00
2022-12-31T02:09:17.280Z,100.00
2022-12-31T02:11:45.139Z,100.00
2022-12-31T02:14:16.984Z,100.00
2022-12-31T02:16:54.339Z,100.00
2022-12-31T02:19:46.741Z,100.00
2022-12-31T02:22:28.143Z,100.00
2022-12-31T02:25:36.905Z,100.00
2022-12-31T02:28:23.297Z,100.00
2022-12-31T02:31:01.348Z,100.00
2022-12-31T02:33:34.038Z,100.00
2022-12-31T02:36:06.196Z,100.00
2022-12-31T02:38:38.294Z,100.00
2022-12-31T02:41:06.417Z,100.00
2022-12-31T02:43:34.312Z,100.00
2022-12-31T02:46:12.123Z,100.00
2022-12-31T02:48:47.038Z,100.00
2022-12-31T02:51:28.012Z,100.00
2022-12-31T02:54:15.518Z,100.00
2022-12-31T02:56:49.839Z,100.00
2022-12-31T02:59:44.602Z,100.00
2022-12-31T03:02:19.632Z,100.00
2022-12-31T03:04:52.015Z,100.00
2022-12-31T03:07:23.020Z,100.00
2022-12-31T03:09:51.179Z,100.00
2022-12-31T03:12:39.202Z,100.00
2022-12-31T03:15:20.177Z,100.00
2022-12-31T03:18:08.504Z,100.00
2022-12-31T03:20:56.093Z,100.00
2022-12-31T03:23:28.610Z,100.00
2022-12-31T03:25:57.059Z,100.00
2022-12-31T03:28:26.894Z,100.00
2022-12-31T03:30:57.572Z,100.00
2022-12-31T03:33:31.055Z,100.00
2022-12-31T03:35:58.999Z,100.00
2022-12-31T03:38:26.981Z,100.00
2022-12-31T03:40:55.172Z,100.00
2022-12-31T03:43:23.355Z,100.00
2022-12-31T03:45:52.595Z,100.00
2022-12-31T03:48:21.613Z,100.00
2022-12-31T03:50:51.584Z,100.00
2022-12-31T03:53:19.635Z,100.00
2022-12-31T03:55:52.048Z,100.00
2022-12-31T03:58:19.868Z,100.00
2022-12-31T04:00:47.759Z,100.00
2022-12-31T04:03:15.662Z,100.00
2022-12-31T04:05:43.529Z,100.00
2022-12-31T04:08:12.872Z,100.00
2022-12-31T04:10:40.786Z,100.00
2022-12-31T04:13:08.625Z,100.00
2022-12-31T04:15:36.524Z,100.00
2022-12-31T04:18:04.674Z,100.00
2022-12-31T04:20:32.500Z,100.00
2022-12-31T04:23:00.415Z,100.00
2022-12-31T04:25:29.678Z,100.00
2022-12-31T04:27:57.497Z,100.00
2022-12-31T04:30:25.401Z,100.00
2022-12-31T04:32:53.307Z,100.00
2022-12-31T04:35:21.114Z,100.00
2022-12-31T04:37:49.007Z,100.00
2022-12-31T04:40:16.975Z,100.00
2022-12-31T04:42:46.303Z,100.00
2022-12-31T04:45:14.270Z,100.00
2022-12-31T04:47:42.108Z,100.00
2022-12-31T04:50:10.235Z,100.00
2022-12-31T04:52:42.760Z,100.00
2022-12-31T04:55:11.668Z,100.00
2022-12-31T04:57:39.717Z,100.00
2022-12-31T05:00:10.445Z,100.00
2022-12-31T05:02:38.421Z,100.00
2022-12-31T05:05:07.223Z,100.00
2022-12-31T05:07:35.028Z,100.00
2022-12-31T05:10:02.913Z,100.00
2022-12-31T05:12:30.910Z,100.00
2022-12-31T05:14:58.769Z,100.00
2022-12-31T05:17:28.011Z,100.00
2022-12-31T05:19:56.001Z,100.00
2022-12-31T05:22:32.486Z,100.00
2022-12-31T05:25:01.306Z,100.00
2022-12-31T05:27:31.241Z,100.00
2022-12-31T05:29:59.394Z,100.00
2022-12-31T05:32:28.707Z,100.00
2022-12-31T05:34:57.128Z,100.00
2022-12-31T05:37:25.096Z,100.00
2022-12-31T05:39:52.954Z,100.00
2022-12-31T05:42:20.919Z,100.00
2022-12-31T05:44:48.913Z,100.00
2022-12-31T05:47:17.023Z,100.00
2022-12-31T05:49:46.415Z,100.00
2022-12-31T05:52:14.911Z,100.00
2022-12-31T05:54:43.076Z,100.00
2022-12-31T05:57:11.267Z,100.00
2022-12-31T05:59:39.166Z,100.00
2022-12-31T06:02:06.980Z,100.00
2022-12-31T06:04:35.065Z,100.00
2022-12-31T06:07:04.314Z,100.00
2022-12-31T06:09:32.203Z,100.00
2022-12-31T06:12:00.221Z,100.00
2022-12-31T06:14:28.060Z,100.00
2022-12-31T06:16:55.935Z,100.00
2022-12-31T06:19:24.045Z,100.00
2022-12-31T06:21:51.947Z,100.00
2022-12-31T06:24:21.345Z,100.00
2022-12-31T06:26:49.299Z,100.00
2022-12-31T06:29:17.544Z,100.00
2022-12-31T06:31:45.574Z,100.00
2022-12-31T06:34:13.633Z,100.00
2022-12-31T06:36:41.506Z,100.00
2022-12-31T06:39:09.361Z,100.00
2022-12-31T06:41:38.628Z,100.00
2022-12-31T06:44:07.224Z,100.00
2022-12-31T06:46:35.165Z,100.00
2022-12-31T06:49:03.309Z,100.00
2022-12-31T06:51:31.165Z,100.00
2022-12-31T06:53:58.986Z,100.00
2022-12-31T06:56:34.363Z,100.00
2022-12-31T06:59:05.455Z,100.00
2022-12-31T07:01:51.447Z,100.00
2022-12-31T07:04:44.328Z,100.00
2022-12-31T07:07:20.628Z,100.00
2022-12-31T07:09:56.956Z,100.00
2022-12-31T07:12:34.747Z,100.00
2022-12-31T07:15:07.880Z,100.00
2022-12-31T07:17:43.483Z,100.00
2022-12-31T07:20:14.295Z,100.00
2022-12-31T07:22:42.677Z,100.00
2022-12-31T07:25:15.470Z,100.00
2022-12-31T07:27:56.969Z,100.00
2022-12-31T07:30:36.520Z,100.00
2022-12-31T07:33:30.999Z,100.00
2022-12-31T07:36:13.037Z,100.00
2022-12-31T07:38:51.419Z,100.00
2022-12-31T07:41:27.385Z,100.00
2022-12-31T07:44:04.008Z,100.00
2022-12-31T07:46:41.589Z,100.00
2022-12-31T07:49:13.487Z,100.00
2022-12-31T07:51:42.420Z,100.00
2022-12-31T07:54:14.147Z,100.00
2022-12-31T07:56:43.018Z,100.00
2022-12-31T07:59:24.630Z,100.00
2022-12-31T08:02:02.411Z,100.00
2022-12-31T08:04:36.856Z,100.00
2022-12-31T08:07:13.575Z,100.00
2022-12-31T08:09:47.938Z,100.00
2022-12-31T08:12:16.206Z,100.00
2022-12-31T08:14:46.586Z,100.00
2022-12-31T08:17:18.572Z,100.00
2022-12-31T08:19:47.161Z,100.00
2022-12-31T08:22:39.839Z,100.00
2022-12-31T08:25:20.910Z,100.00
2022-12-31T08:28:17.949Z,100.00
2022-12-31T08:30:56.043Z,100.00
2022-12-31T08:33:33.092Z,100.00
2022-12-31T08:36:12.781Z,100.00
2022-12-31T08:38:48.844Z,100.00
2022-12-31T08:41:22.739Z,100.00
2022-12-31T08:44:00.048Z,100.00
2022-12-31T08:46:32.631Z,100.00
2022-12-31T08:49:02.671Z,100.00
2022-12-31T08:51:30.905Z,100.00
2022-12-31T08:53:59.308Z,100.00
2022-12-31T08:56:33.052Z,100.00
2022-12-31T08:59:14.527Z,100.00
2022-12-31T09:01:54.832Z,100.00
2022-12-31T09:04:31.314Z,100.00
2022-12-31T09:07:01.644Z,100.00
2022-12-31T09:09:40.568Z,100.00
2022-12-31T09:12:15.515Z,100.00
2022-12-31T09:14:47.088Z,100.00
2022-12-31T09:17:41.660Z,100.00
2022-12-31T09:20:16.944Z,100.00
2022-12-31T09:22:45.219Z,100.00
2022-12-31T09:25:18.133Z,100.00
2022-12-31T09:27:53.679Z,100.00
2022-12-31T09:30:21.723Z,100.00
2022-12-31T09:33:01.114Z,100.00
2022-12-31T09:35:38.042Z,100.00
2022-12-31T09:38:13.178Z,100.00
2022-12-31T09:40:55.774Z,100.00
2022-12-31T09:44:02.221Z,100.00
2022-12-31T09:47:11.531Z,100.00
2022-12-31T09:50:13.869Z,100.00
2022-12-31T09:52:59.583Z,100.00
2022-12-31T09:55:38.463Z,100.00
2022-12-31T09:58:23.698Z,100.00
2022-12-31T10:00:54.863Z,100.00
2022-12-31T10:03:44.768Z,100.00
2022-12-31T10:06:24.386Z,100.00
2022-12-31T10:09:24.233Z,100.00
2022-12-31T10:12:04.779Z,100.00
2022-12-31T10:14:48.509Z,100.00
2022-12-31T10:17:30.122Z,100.00
2022-12-31T10:20:17.906Z,100.00
2022-12-31T10:23:08.857Z,100.00
2022-12-31T10:25:58.996Z,100.00
2022-12-31T10:28:32.272Z,100.00
2022-12-31T10:31:14.352Z,100.00
2022-12-31T10:33:45.929Z,100.00
2022-12-31T10:36:21.578Z,100.00
2022-12-31T10:39:06.181Z,100.00
2022-12-31T10:42:06.120Z,100.00
2022-12-31T10:45:03.985Z,100.00
2022-12-31T10:48:05.296Z,100.00
2022-12-31T10:51:11.561Z,100.00
2022-12-31T10:54:12.314Z,100.00
2022-12-31T10:57:07.206Z,100.00
2022-12-31T11:00:12.021Z,100.00
2022-12-31T11:03:25.185Z,100.00
2022-12-31T11:06:38.404Z,100.00
2022-12-31T11:09:31.294Z,100.00
2022-12-31T11:12:13.664Z,100.00
2022-12-31T11:15:19.292Z,100.00
2022-12-31T11:17:59.766Z,100.00
2022-12-31T11:20:53.235Z,100.00
2022-12-31T11:23:36.510Z,100.00
2022-12-31T11:26:16.777Z,100.00
2022-12-31T11:29:10.156Z,100.00
2022-12-31T11:31:59.242Z,100.00
2022-12-31T11:34:48.930Z,100.00
2022-12-31T11:37:30.942Z,100.00
2022-12-31T11:40:07.582Z,100.00
2022-12-31T11:42:45.206Z,100.00
2022-12-31T11:45:27.820Z,100.00
2022-12-31T11:48:29.591Z,100.00
2022-12-31T11:51:04.568Z,100.00
2022-12-31T11:53:48.533Z,100.00
2022-12-31T11:56:19.952Z,100.00
2022-12-31T11:58:50.487Z,100.00
2022-12-31T12:01:26.283Z,100.00
2022-12-31T12:03:54.473Z,100.00
2022-12-31T12:06:28.332Z,100.00
2022-12-31T12:09:00.645Z,100.00
2022-12-31T12:11:31.279Z,100.00
2022-12-31T12:13:59.321Z,100.00
2022-12-31T12:16:29.638Z,100.00
2022-12-31T12:19:05.906Z,100.00
2022-12-31T12:21:34.949Z,100.00
2022-12-31T12:24:05.563Z,99.86
2022-12-31T12:26:36.928Z,100.00
2022-12-31T12:29:11.680Z,99.37
2022-12-31T12:31:41.010Z,99.61
2022-12-31T12:34:23.975Z,99.40
2022-12-31T12:36:51.972Z,99.47
2022-12-31T12:39:22.778Z,99.09
2022-12-31T12:42:01.692Z,99.17
2022-12-31T12:44:29.549Z,98.89
2022-12-31T12:46:59.987Z,98.31
2022-12-31T12:49:30.486Z,98.90
2022-12-31T12:52:10.828Z,99.03
2022-12-31T12:54:57.276Z,99.19
2022-12-31T12:57:35.375Z,99.42
2022-12-31T13:00:15.903Z,98.97
2022-12-31T13:03:21.650Z,98.96
2022-12-31T13:05:57.011Z,99.39
2022-12-31T13:08:38.158Z,98.25
2022-12-31T13:11:27.582Z,98.46
2022-12-31T13:14:06.220Z,97.82
2022-12-31T13:16:42.323Z,97.88
2022-12-31T13:19:20.047Z,97.86
2022-12-31T13:21:57.376Z,98.06
2022-12-31T13:24:35.860Z,98.11
2022-12-31T13:27:13.732Z,97.81
2022-12-31T13:29:43.661Z,97.87
2022-12-31T13:32:18.463Z,98.27
2022-12-31T13:34:50.895Z,97.76
2022-12-31T13:37:26.907Z,97.77
2022-12-31T13:40:00.960Z,97.71
2022-12-31T13:42:37.051Z,97.82
2022-12-31T13:45:11.226Z,97.24
2022-12-31T13:47:43.367Z,97.42
2022-12-31T13:50:20.950Z,97.09
2022-12-31T13:52:55.087Z,97.83
2022-12-31T13:55:27.755Z,97.12
2022-12-31T13:58:02.539Z,97.12
2022-12-31T14:00:36.226Z,97.77
2022-12-31T14:03:14.320Z,97.66
2022-12-31T14:05:49.995Z,97.26
2022-12-31T14:08:18.080Z,97.46
2022-12-31T14:10:58.496Z,97.35
2022-12-31T14:13:39.811Z,96.91
2022-12-31T14:16:20.449Z,97.17
2022-12-31T14:18:59.013Z,97.04
2022-12-31T14:21:34.616Z,96.79
2022-12-31T14:24:12.990Z,96.89
2022-12-31T14:26:45.164Z,97.22
2022-12-31T14:29:25.646Z,97.22
2022-12-31T14:32:17.682Z,96.73
2022-12-31T14:34:57.457Z,96.48
2022-12-31T14:37:34.295Z,97.02
2022-12-31T14:40:16.955Z,96.19
2022-12-31T14:42:54.095Z,96.53
2022-12-31T14:45:36.589Z,96.43
2022-12-31T14:48:21.944Z,96.17
2022-12-31T14:50:50.654Z,96.08
2022-12-31T14:53:23.867Z,96.10
2022-12-31T14:55:59.654Z,95.98
2022-12-31T14:58:33.318Z,95.95
2022-12-31T15:01:03.482Z,95.70
2022-12-31T15:03:43.005Z,95.62
2022-12-31T15:06:38.402Z,95.08
2022-12-31T15:09:18.953Z,95.18
2022-12-31T15:12:07.993Z,94.65
2022-12-31T15:14:54.564Z,94.81
2022-12-31T15:17:32.043Z,94.13
2022-12-31T15:20:32.740Z,93.63
2022-12-31T15:23:00.972Z,94.16
2022-12-31T15:25:39.978Z,94.68
2022-12-31T15:28:24.289Z,94.05
2022-12-31T15:30:53.438Z,94.07
2022-12-31T15:33:29.087Z,94.25
2022-12-31T15:35:58.342Z,94.50
2022-12-31T15:38:38.163Z,93.44
2022-12-31T15:41:28.393Z,93.20
2022-12-31T15:44:01.554Z,92.55
2022-12-31T15:46:33.328Z,92.24
2022-12-31T15:49:07.855Z,91.72
2022-12-31T15:51:45.939Z,91.33
2022-12-31T15:54:24.283Z,91.08
2022-12-31T15:56:55.319Z,89.62
2022-12-31T15:59:26.256Z,88.88
2022-12-31T16:01:57.363Z,89.20
2022-12-31T16:04:27.822Z,88.99
2022-12-31T16:06:59.442Z,87.23
2022-12-31T16:09:30.119Z,87.63
2022-12-31T16:12:00.595Z,87.14
2022-12-31T16:14:35.675Z,87.04
2022-12-31T16:17:04.027Z,87.35
2022-12-31T16:19:35.835Z,87.71
2022-12-31T16:22:09.675Z,87.53
2022-12-31T16:24:55.176Z,87.25
2022-12-31T16:27:29.382Z,86.85
2022-12-31T16:30:00.939Z,86.79
2022-12-31T16:32:35.785Z,87.28
2022-12-31T16:35:07.017Z,86.13
2022-12-31T16:37:38.540Z,86.58
2022-12-31T16:40:19.492Z,86.80
2022-12-31T16:42:49.111Z,86.83
2022-12-31T16:45:30.015Z,86.93
2022-12-31T16:47:59.644Z,86.93
2022-12-31T16:50:27.598Z,86.81
2022-12-31T16:53:00.409Z,86.94
2022-12-31T16:55:31.344Z,86.29
2022-12-31T16:58:04.206Z,85.97
2022-12-31T17:00:33.691Z,86.46
2022-12-31T17:03:09.103Z,86.74
2022-12-31T17:05:56.981Z,86.32
2022-12-31T17:08:27.029Z,86.56
2022-12-31T17:10:56.486Z,86.57
2022-12-31T17:13:35.232Z,86.44
2022-12-31T17:16:03.522Z,85.92
2022-12-31T17:18:36.971Z,86.28
2022-12-31T17:21:09.693Z,86.48
2022-12-31T17:23:40.659Z,86.47
2022-12-31T17:26:11.961Z,86.58
2022-12-31T17:28:45.886Z,86.82
2022-12-31T17:31:34.750Z,86.34
2022-12-31T17:34:19.164Z,86.54
2022-12-31T17:36:57.196Z,86.84
2022-12-31T17:39:26.550Z,86.65
2022-12-31T17:41:58.142Z,87.04
2022-12-31T17:44:29.691Z,86.40
2022-12-31T17:46:57.593Z,86.26
2022-12-31T17:49:31.350Z,86.64
2022-12-31T17:51:59.200Z,86.40
2022-12-31T17:54:27.035Z,86.22
2022-12-31T17:56:55.195Z,86.45
2022-12-31T17:59:29.631Z,86.75
2022-12-31T18:02:01.244Z,86.42
2022-12-31T18:04:29.238Z,86.91
2022-12-31T18:06:57.122Z,86.82
2022-12-31T18:09:25.114Z,86.91
2022-12-31T18:11:56.830Z,86.76
2022-12-31T18:14:28.000Z,86.70
2022-12-31T18:16:55.844Z,86.23
2022-12-31T18:19:54.137Z,86.21
2022-12-31T18:22:16.854Z,85.85
2022-12-31T18:24:45.423Z,86.47
2022-12-31T18:27:17.781Z,85.83
2022-12-31T18:29:46.438Z,85.78
2022-12-31T18:32:21.177Z,85.46
2022-12-31T18:34:51.106Z,85.44
2022-12-31T18:37:22.245Z,85.24
2022-12-31T18:39:50.774Z,85.07
2022-12-31T18:42:19.793Z,85.38
2022-12-31T18:44:48.199Z,85.84
2022-12-31T18:47:18.441Z,85.67
2022-12-31T18:49:48.614Z,84.74
2022-12-31T18:52:19.628Z,85.30
2022-12-31T18:54:47.820Z,85.00
2022-12-31T18:57:16.655Z,84.96
2022-12-31T18:59:44.619Z,84.70
2022-12-31T19:02:16.675Z,85.11
2022-12-31T19:04:44.951Z,84.78
2022-12-31T19:07:12.704Z,85.07
2022-12-31T19:09:46.446Z,84.74
2022-12-31T19:12:16.088Z,84.29
2022-12-31T19:14:44.018Z,84.79
2022-12-31T19:17:11.828Z,84.72
2022-12-31T19:19:39.740Z,85.14
2022-12-31T19:22:07.566Z,84.97
2022-12-31T19:24:35.388Z,85.13
2022-12-31T19:27:04.897Z,84.82
2022-12-31T19:29:32.736Z,84.31
2022-12-31T19:32:02.207Z,84.25
2022-12-31T19:34:30.347Z,84.95
2022-12-31T19:36:58.205Z,84.63
2022-12-31T19:39:26.006Z,84.86
2022-12-31T19:41:58.811Z,84.42
2022-12-31T19:44:28.512Z,84.67
2022-12-31T19:46:56.490Z,84.25
2022-12-31T19:49:24.581Z,84.92
2022-12-31T19:51:52.460Z,85.23
2022-12-31T19:54:20.985Z,84.85
2022-12-31T19:56:48.783Z,84.65
2022-12-31T19:59:16.583Z,85.05
2022-12-31T20:01:46.020Z,84.97
2022-12-31T20:04:14.345Z,84.74
2022-12-31T20:06:42.347Z,84.64
2022-12-31T20:09:10.356Z,85.00
2022-12-31T20:11:38.179Z,84.83
2022-12-31T20:14:06.029Z,84.98
2022-12-31T20:16:34.190Z,84.60
2022-12-31T20:19:03.564Z,84.63
2022-12-31T20:21:31.409Z,84.86
2022-12-31T20:23:59.369Z,84.09
2022-12-31T20:26:27.314Z,84.48
2022-12-31T20:28:55.225Z,84.17
2022-12-31T20:31:25.549Z,84.16
2022-12-31T20:33:54.750Z,83.98
2022-12-31T20:36:25.811Z,83.75
2022-12-31T20:38:53.766Z,84.13
2022-12-31T20:41:23.381Z,84.24
2022-12-31T20:43:51.947Z,84.21
2022-12-31T20:46:22.162Z,84.33
2022-12-31T20:48:52.041Z,84.61
2022-12-31T20:51:21.362Z,84.48
2022-12-31T20:53:52.925Z,84.18
2022-12-31T20:56:20.945Z,84.30
2022-12-31T20:58:49.182Z,84.19
2022-12-31T21:01:18.154Z,84.77
2022-12-31T21:04:05.418Z,84.49
2022-12-31T21:06:35.122Z,84.45
2022-12-31T21:09:06.929Z,84.35
2022-12-31T21:11:52.693Z,84.37
2022-12-31T21:14:21.164Z,84.76
2022-12-31T21:16:49.007Z,84.05
2022-12-31T21:19:16.901Z,84.46
2022-12-31T21:21:44.852Z,84.26
2022-12-31T21:24:17.488Z,83.46
2022-12-31T21:26:48.244Z,83.37
2022-12-31T21:29:16.124Z,83.44
2022-12-31T21:31:44.070Z,83.04
2022-12-31T21:34:12.078Z,83.12
2022-12-31T21:36:39.922Z,82.97
2022-12-31T21:39:07.715Z,83.30
2022-12-31T21:41:52.252Z,83.24
2022-12-31T21:44:21.407Z,83.11
2022-12-31T21:47:25.122Z,83.27
2022-12-31T21:49:37.440Z,83.21
2022-12-31T21:52:23.173Z,83.63
2022-12-31T21:55:08.399Z,83.35
2022-12-31T21:58:15.180Z,83.07
2022-12-31T22:00:43.838Z,83.09
2022-12-31T22:03:26.975Z,83.21
2022-12-31T22:05:56.535Z,83.70
2022-12-31T22:08:24.476Z,83.67
2022-12-31T22:10:55.189Z,84.03
2022-12-31T22:13:24.751Z,83.94
2022-12-31T22:16:01.829Z,83.64
2022-12-31T22:18:34.495Z,83.98
2022-12-31T22:21:04.149Z,84.22
2022-12-31T22:23:32.795Z,84.06
2022-12-31T22:26:00.806Z,84.29
2022-12-31T22:28:39.248Z,84.79
2022-12-31T22:31:08.046Z,84.58
2022-12-31T22:33:36.267Z,84.82
2022-12-31T22:36:06.794Z,85.10
2022-12-31T22:38:35.446Z,85.24
2022-12-31T22:41:07.727Z,85.46
2022-12-31T22:43:39.443Z,85.30
2022-12-31T22:46:12.800Z,85.90
2022-12-31T22:48:41.746Z,85.95
2022-12-31T22:51:11.285Z,86.03
2022-12-31T22:53:41.290Z,85.99
2022-12-31T22:56:10.234Z,86.21
2022-12-31T22:58:39.568Z,86.02
2022-12-31T23:01:08.655Z,86.53
2022-12-31T23:03:36.759Z,86.85
2022-12-31T23:06:04.701Z,86.79
2022-12-31T23:08:32.578Z,86.92
2022-12-31T23:10:59.887Z,87.02
2022-12-31T23:13:50.163Z,86.72
2022-12-31T23:16:38.574Z,87.09
2022-12-31T23:19:24.513Z,87.16
2022-12-31T23:22:10.510Z,87.49
2022-12-31T23:24:38.620Z,87.91
2022-12-31T23:27:07.156Z,87.84
2022-12-31T23:29:39.020Z,87.79
2022-12-31T23:32:11.622Z,88.32
2022-12-31T23:34:39.542Z,88.15
2022-12-31T23:37:07.385Z,87.99
2022-12-31T23:39:35.391Z,88.39
2022-12-31T23:42:03.274Z,88.47
2022-12-31T23:44:31.179Z,88.34
2022-12-31T23:46:59.227Z,88.68
2022-12-31T23:49:28.623Z,88.82
2022-12-31T23:51:56.512Z,88.87
2022-12-31T23:54:24.457Z,89.15
2022-12-31T23:56:52.372Z,89.13
2022-12-31T23:59:20.438Z,88.97
